createdAt,value
2018-10-09T00:02:15.892Z,9.10
2018-10-09T00:04:44.041Z,9.10
2018-10-09T00:07:12.238Z,9.00
2018-10-09T00:09:40.510Z,8.90
2018-10-09T00:12:08.750Z,8.80
2018-10-09T00:14:36.894Z,8.90
2018-10-09T00:17:05.122Z,8.90
2018-10-09T00:19:33.577Z,8.90
2018-10-09T00:22:02.214Z,9.00
2018-10-09T00:24:30.295Z,8.90
2018-10-09T00:26:58.446Z,8.90
2018-10-09T00:29:27.016Z,8.90
2018-10-09T00:31:55.053Z,8.90
2018-10-09T00:34:23.473Z,8.90
2018-10-09T00:36:51.635Z,8.90
2018-10-09T00:39:19.884Z,8.90
2018-10-09T00:41:48.192Z,8.90
2018-10-09T00:44:16.371Z,8.80
2018-10-09T00:46:44.607Z,8.80
2018-10-09T00:49:12.822Z,8.80
2018-10-09T00:51:41.068Z,8.70
2018-10-09T00:54:09.287Z,8.60
2018-10-09T00:56:37.354Z,8.60
2018-10-09T00:59:05.628Z,8.60
2018-10-09T01:01:33.801Z,8.50
2018-10-09T01:04:01.866Z,8.50
2018-10-09T01:06:30.246Z,8.40
2018-10-09T01:08:58.357Z,8.30
2018-10-09T01:11:26.619Z,8.30
2018-10-09T01:13:54.682Z,8.30
2018-10-09T01:16:22.716Z,8.30
2018-10-09T01:18:50.858Z,8.40
2018-10-09T01:21:19.065Z,8.30
2018-10-09T01:23:47.467Z,8.40
2018-10-09T01:26:15.530Z,8.30
2018-10-09T01:28:43.890Z,8.20
2018-10-09T01:31:12.294Z,8.20
2018-10-09T01:33:40.579Z,8.20
2018-10-09T01:36:08.835Z,8.20
2018-10-09T01:38:36.917Z,8.20
2018-10-09T01:41:05.468Z,8.10
2018-10-09T01:43:33.532Z,8.20
2018-10-09T01:46:01.850Z,8.10
2018-10-09T01:48:29.963Z,8.10
2018-10-09T01:50:58.396Z,8.10
2018-10-09T01:53:26.638Z,8.00
2018-10-09T01:55:54.825Z,7.90
2018-10-09T01:58:23.092Z,7.80
2018-10-09T02:00:51.304Z,7.80
2018-10-09T02:03:19.685Z,7.90
2018-10-09T02:05:47.836Z,8.00
2018-10-09T02:08:15.997Z,8.00
2018-10-09T02:10:44.314Z,8.00
2018-10-09T02:13:12.328Z,7.90
2018-10-09T02:15:40.421Z,7.90
2018-10-09T02:18:08.471Z,7.80
2018-10-09T02:20:36.637Z,7.80
2018-10-09T02:23:04.873Z,7.80
2018-10-09T02:25:33.003Z,7.80
2018-10-09T02:28:01.162Z,7.90
2018-10-09T02:30:29.456Z,7.90
2018-10-09T02:32:57.654Z,7.70
2018-10-09T02:35:25.880Z,7.60
2018-10-09T02:37:54.179Z,7.60
2018-10-09T02:40:22.495Z,7.50
2018-10-09T02:42:50.907Z,7.60
2018-10-09T02:45:19.098Z,7.60
2018-10-09T02:47:47.458Z,7.50
2018-10-09T02:50:15.592Z,7.60
2018-10-09T02:52:43.784Z,7.60
2018-10-09T02:55:11.936Z,7.60
2018-10-09T02:57:40.154Z,7.50
2018-10-09T03:00:08.423Z,7.50
2018-10-09T03:02:36.597Z,7.40
2018-10-09T03:05:04.965Z,7.40
2018-10-09T03:07:33.132Z,7.40
2018-10-09T03:10:01.435Z,7.40
2018-10-09T03:12:29.614Z,7.40
2018-10-09T03:14:58.030Z,7.40
2018-10-09T03:17:26.185Z,7.50
2018-10-09T03:19:54.321Z,7.50
2018-10-09T03:22:22.411Z,7.60
2018-10-09T03:24:50.848Z,7.60
2018-10-09T03:27:19.061Z,7.50
2018-10-09T03:29:47.443Z,7.50
2018-10-09T03:32:15.901Z,7.50
2018-10-09T03:34:44.017Z,7.40
2018-10-09T03:37:12.150Z,7.40
2018-10-09T03:39:40.452Z,7.40
2018-10-09T03:42:08.635Z,7.30
2018-10-09T03:44:36.736Z,7.40
2018-10-09T03:47:04.971Z,7.30
2018-10-09T03:49:33.183Z,7.30
2018-10-09T03:52:01.267Z,7.30
2018-10-09T03:54:29.351Z,7.20
2018-10-09T03:56:57.657Z,7.10
2018-10-09T03:59:25.941Z,7.00
2018-10-09T04:01:54.057Z,6.90
2018-10-09T04:04:22.521Z,7.80
2018-10-09T04:06:50.693Z,6.90
2018-10-09T04:09:18.831Z,6.90
2018-10-09T04:11:47.071Z,7.10
2018-10-09T04:14:17.742Z,7.10
2018-10-09T04:16:47.485Z,7.00
2018-10-09T04:19:15.962Z,7.10
2018-10-09T04:21:44.197Z,7.10
2018-10-09T04:24:18.889Z,7.20
2018-10-09T04:26:51.635Z,7.20
2018-10-09T04:29:21.211Z,7.40
2018-10-09T04:31:49.706Z,7.50
2018-10-09T04:34:18.040Z,7.60
2018-10-09T04:36:46.220Z,7.70
2018-10-09T04:39:14.311Z,7.90
2018-10-09T04:41:42.526Z,8.10
2018-10-09T04:44:10.783Z,8.30
2018-10-09T04:46:38.872Z,8.50
2018-10-09T04:49:07.137Z,8.70
2018-10-09T04:51:35.437Z,8.80
2018-10-09T04:54:03.626Z,8.90
2018-10-09T04:56:32.012Z,8.90
2018-10-09T04:59:00.204Z,8.90
2018-10-09T05:01:29.172Z,8.80
2018-10-09T05:03:57.379Z,8.70
2018-10-09T05:06:25.875Z,8.60
2018-10-09T05:08:54.467Z,8.60
2018-10-09T05:11:23.154Z,8.50
2018-10-09T05:13:51.315Z,8.50
2018-10-09T05:16:19.678Z,8.50
2018-10-09T05:18:47.943Z,8.50
2018-10-09T05:21:16.418Z,8.50
2018-10-09T05:23:44.905Z,8.50
2018-10-09T05:26:13.214Z,8.60
2018-10-09T05:28:41.648Z,8.50
2018-10-09T05:31:10.169Z,8.60
2018-10-09T05:33:38.545Z,8.70
2018-10-09T05:36:06.987Z,8.70
2018-10-09T05:38:35.133Z,8.80
2018-10-09T05:41:03.932Z,8.90
2018-10-09T05:43:32.190Z,9.00
2018-10-09T05:46:00.301Z,9.10
2018-10-09T05:48:29.159Z,9.20
2018-10-09T05:50:57.312Z,9.30
2018-10-09T05:53:25.523Z,9.40
2018-10-09T05:55:53.722Z,9.50
2018-10-09T05:58:21.865Z,9.50
2018-10-09T06:00:50.368Z,9.60
2018-10-09T06:03:18.546Z,9.70
2018-10-09T06:05:47.035Z,9.70
2018-10-09T06:08:15.294Z,9.70
2018-10-09T06:10:43.473Z,9.80
2018-10-09T06:13:11.756Z,9.90
2018-10-09T06:15:39.952Z,9.90
2018-10-09T06:18:08.262Z,10.00
2018-10-09T06:20:36.518Z,10.10
2018-10-09T06:23:04.967Z,10.20
2018-10-09T06:25:33.167Z,10.30
2018-10-09T06:28:01.343Z,10.50
2018-10-09T06:30:29.370Z,10.60
2018-10-09T06:32:57.513Z,10.70
2018-10-09T06:35:25.788Z,10.80
2018-10-09T06:37:53.939Z,11.00
2018-10-09T06:40:22.073Z,11.10
2018-10-09T06:42:50.347Z,11.20
2018-10-09T06:45:18.812Z,11.20
2018-10-09T06:47:47.062Z,11.20
2018-10-09T06:50:15.399Z,11.30
2018-10-09T06:52:43.593Z,11.40
2018-10-09T06:55:11.759Z,11.60
2018-10-09T06:57:39.889Z,11.60
2018-10-09T07:00:08.330Z,11.60
2018-10-09T07:02:36.766Z,11.70
2018-10-09T07:05:05.230Z,11.80
2018-10-09T07:07:33.705Z,11.90
2018-10-09T07:10:02.377Z,12.00
2018-10-09T07:12:30.462Z,12.20
2018-10-09T07:14:58.555Z,12.30
2018-10-09T07:17:26.983Z,12.50
2018-10-09T07:19:55.079Z,12.60
2018-10-09T07:22:23.399Z,12.60
2018-10-09T07:24:51.647Z,12.70
2018-10-09T07:27:19.809Z,12.80
2018-10-09T07:29:48.207Z,12.80
2018-10-09T07:32:16.575Z,12.80
2018-10-09T07:34:44.816Z,12.90
2018-10-09T07:37:12.963Z,12.90
2018-10-09T07:39:41.156Z,13.10
2018-10-09T07:42:09.332Z,13.20
2018-10-09T07:44:37.948Z,13.30
2018-10-09T07:47:06.081Z,13.40
2018-10-09T07:49:34.295Z,13.30
2018-10-09T07:52:02.471Z,13.30
2018-10-09T07:54:30.573Z,13.30
2018-10-09T07:56:58.793Z,13.40
2018-10-09T07:59:27.216Z,13.50
2018-10-09T08:01:55.818Z,13.60
2018-10-09T08:04:24.262Z,13.80
2018-10-09T08:06:52.814Z,14.10
2018-10-09T08:09:21.021Z,14.60
2018-10-09T08:11:49.287Z,15.70
2018-10-09T08:14:17.635Z,16.70
2018-10-09T08:16:45.785Z,17.60
2018-10-09T08:19:14.231Z,18.40
2018-10-09T08:21:42.707Z,18.90
2018-10-09T08:24:10.910Z,19.40
2018-10-09T08:26:39.188Z,20.30
2018-10-09T08:29:07.412Z,21.00
2018-10-09T08:31:35.615Z,21.50
2018-10-09T08:34:03.836Z,21.80
2018-10-09T08:36:32.093Z,22.60
2018-10-09T08:39:00.452Z,22.60
2018-10-09T08:41:28.666Z,22.90
2018-10-09T08:43:56.818Z,23.40
2018-10-09T08:46:25.262Z,23.20
2018-10-09T08:48:53.537Z,23.90
2018-10-09T08:51:21.699Z,24.40
2018-10-09T08:53:49.877Z,23.90
2018-10-09T08:56:18.069Z,23.90
2018-10-09T08:58:46.170Z,24.70
2018-10-09T09:01:14.300Z,24.20
2018-10-09T09:03:42.575Z,23.50
2018-10-09T09:06:10.723Z,22.80
2018-10-09T09:08:38.885Z,23.80
2018-10-09T09:11:07.365Z,24.30
2018-10-09T09:13:35.523Z,25.00
2018-10-09T09:16:03.688Z,24.50
2018-10-09T09:18:31.850Z,24.30
2018-10-09T09:21:00.030Z,25.40
2018-10-09T09:23:28.192Z,25.90
2018-10-09T09:25:56.504Z,24.50
2018-10-09T09:28:24.744Z,23.90
2018-10-09T09:30:52.796Z,24.80
2018-10-09T09:33:21.085Z,25.70
2018-10-09T09:35:49.229Z,26.40
2018-10-09T09:38:17.461Z,27.20
2018-10-09T09:40:45.675Z,27.60
2018-10-09T09:43:14.427Z,28.20
2018-10-09T09:45:42.528Z,27.80
2018-10-09T09:48:11.027Z,26.50
2018-10-09T09:50:39.301Z,26.60
2018-10-09T09:53:07.763Z,26.10
2018-10-09T09:55:35.941Z,25.90
2018-10-09T09:58:04.613Z,26.20
2018-10-09T10:00:38.413Z,27.30
2018-10-09T10:03:06.686Z,26.70
2018-10-09T10:05:34.751Z,25.90
2018-10-09T10:08:02.892Z,26.90
2018-10-09T10:10:31.027Z,27.40
2018-10-09T10:12:59.227Z,27.60
2018-10-09T10:15:27.390Z,27.80
2018-10-09T10:17:55.579Z,27.10
2018-10-09T10:20:23.806Z,26.70
2018-10-09T10:22:52.724Z,27.10
2018-10-09T10:25:20.831Z,27.50
2018-10-09T10:27:49.049Z,27.60
2018-10-09T10:30:17.392Z,26.70
2018-10-09T10:32:45.538Z,26.50
2018-10-09T10:35:13.760Z,27.40
2018-10-09T10:37:41.882Z,28.10
2018-10-09T10:40:10.061Z,27.90
2018-10-09T10:42:38.113Z,27.10
2018-10-09T10:45:06.262Z,27.70
2018-10-09T10:47:35.003Z,28.70
2018-10-09T10:50:03.185Z,28.90
2018-10-09T10:52:31.296Z,28.60
2018-10-09T10:54:59.531Z,28.60
2018-10-09T10:57:27.613Z,27.70
2018-10-09T10:59:55.822Z,26.30
2018-10-09T11:02:23.953Z,24.90
2018-10-09T11:04:52.086Z,24.20
2018-10-09T11:07:20.481Z,23.80
2018-10-09T11:09:48.574Z,23.40
2018-10-09T11:12:16.638Z,23.00
2018-10-09T11:14:44.833Z,22.90
2018-10-09T11:17:12.892Z,22.80
2018-10-09T11:19:40.998Z,22.80
2018-10-09T11:22:09.140Z,22.90
2018-10-09T11:24:37.262Z,22.70
2018-10-09T11:27:05.398Z,22.80
2018-10-09T11:29:33.647Z,22.90
2018-10-09T11:32:02.368Z,22.90
2018-10-09T11:34:30.552Z,22.90
2018-10-09T11:36:58.892Z,22.70
2018-10-09T11:39:27.115Z,22.70
2018-10-09T11:41:55.244Z,22.70
2018-10-09T11:44:23.325Z,22.80
2018-10-09T11:46:51.461Z,22.80
2018-10-09T11:49:20.556Z,22.70
2018-10-09T11:51:49.004Z,22.60
2018-10-09T11:54:17.307Z,22.60
2018-10-09T11:56:45.695Z,23.00
2018-10-09T11:59:13.890Z,23.00
2018-10-09T12:01:42.200Z,23.00
2018-10-09T12:04:10.559Z,23.10
2018-10-09T12:06:39.375Z,23.20
2018-10-09T12:09:09.977Z,23.30
2018-10-09T12:11:38.782Z,23.50
2018-10-09T12:14:06.929Z,23.40
2018-10-09T12:16:35.234Z,23.50
2018-10-09T12:19:03.739Z,23.40
2018-10-09T12:21:32.100Z,23.30
2018-10-09T12:24:00.288Z,23.40
2018-10-09T12:26:28.496Z,23.00
2018-10-09T12:28:56.694Z,22.70
2018-10-09T12:31:25.127Z,22.50
2018-10-09T12:33:53.384Z,22.30
2018-10-09T12:36:21.567Z,22.30
2018-10-09T12:38:49.747Z,22.40
2018-10-09T12:41:17.747Z,22.50
2018-10-09T12:43:45.945Z,22.50
2018-10-09T12:46:14.035Z,22.50
2018-10-09T12:48:42.190Z,22.50
2018-10-09T12:51:10.284Z,22.40
2018-10-09T12:53:38.640Z,22.20
2018-10-09T12:56:07.059Z,22.10
2018-10-09T12:58:35.507Z,22.20
2018-10-09T13:01:03.583Z,22.20
2018-10-09T13:03:31.646Z,22.10
2018-10-09T13:06:00.108Z,22.20
2018-10-09T13:08:28.161Z,22.20
2018-10-09T13:10:56.372Z,22.30
2018-10-09T13:13:24.598Z,22.40
2018-10-09T13:15:53.134Z,22.50
2018-10-09T13:18:21.482Z,22.60
2018-10-09T13:20:49.988Z,22.50
2018-10-09T13:23:18.090Z,22.60
2018-10-09T13:25:46.273Z,22.70
2018-10-09T13:28:14.966Z,22.60
2018-10-09T13:30:43.402Z,22.50
2018-10-09T13:33:11.822Z,22.50
2018-10-09T13:35:40.008Z,22.50
2018-10-09T13:38:08.222Z,22.50
2018-10-09T13:40:36.623Z,22.60
2018-10-09T13:43:04.784Z,22.30
2018-10-09T13:45:32.874Z,22.30
2018-10-09T13:48:01.283Z,22.30
2018-10-09T13:50:29.915Z,22.40
2018-10-09T13:52:58.077Z,22.30
2018-10-09T13:55:26.236Z,22.40
2018-10-09T13:57:55.373Z,22.50
2018-10-09T14:00:23.864Z,22.50
2018-10-09T14:02:53.447Z,22.60
2018-10-09T14:05:21.953Z,22.60
2018-10-09T14:07:50.248Z,22.70
2018-10-09T14:10:18.597Z,22.80
2018-10-09T14:12:46.773Z,22.90
2018-10-09T14:15:14.985Z,22.80
2018-10-09T14:17:43.425Z,22.80
2018-10-09T14:20:11.800Z,22.80
2018-10-09T14:22:40.101Z,22.80
2018-10-09T14:25:08.233Z,22.80
2018-10-09T14:27:36.430Z,22.80
2018-10-09T14:30:04.961Z,22.80
2018-10-09T14:32:33.196Z,22.80
2018-10-09T14:35:01.486Z,22.70
2018-10-09T14:37:29.621Z,22.70
2018-10-09T14:39:58.005Z,23.00
2018-10-09T14:42:26.237Z,22.70
2018-10-09T14:44:54.700Z,22.70
2018-10-09T14:47:23.032Z,22.60
2018-10-09T14:49:51.451Z,22.60
2018-10-09T14:52:19.789Z,22.60
2018-10-09T14:54:47.948Z,22.50
2018-10-09T14:57:16.180Z,22.40
2018-10-09T14:59:44.502Z,22.20
2018-10-09T15:02:12.732Z,22.10
2018-10-09T15:04:40.995Z,22.10
2018-10-09T15:07:09.137Z,21.90
2018-10-09T15:09:37.375Z,21.80
2018-10-09T15:12:05.568Z,21.70
2018-10-09T15:14:33.740Z,21.60
2018-10-09T15:17:01.937Z,21.50
2018-10-09T15:19:30.485Z,21.40
2018-10-09T15:21:58.709Z,21.20
2018-10-09T15:24:26.961Z,21.10
2018-10-09T15:26:55.357Z,21.10
2018-10-09T15:29:23.517Z,21.10
2018-10-09T15:31:51.709Z,21.10
2018-10-09T15:34:20.006Z,21.10
2018-10-09T15:36:48.383Z,21.00
2018-10-09T15:39:16.572Z,20.90
2018-10-09T15:41:44.933Z,20.90
2018-10-09T15:44:13.280Z,20.80
2018-10-09T15:46:41.793Z,20.80
2018-10-09T15:49:10.552Z,20.80
2018-10-09T15:51:38.941Z,20.80
2018-10-09T15:54:07.057Z,20.80
2018-10-09T15:56:35.335Z,20.70
2018-10-09T15:59:03.774Z,20.70
2018-10-09T16:01:32.202Z,20.70
2018-10-09T16:04:00.407Z,20.70
2018-10-09T16:06:28.709Z,20.70
2018-10-09T16:08:57.037Z,20.60
2018-10-09T16:11:25.656Z,20.60
2018-10-09T16:13:54.041Z,20.50
2018-10-09T16:16:22.464Z,20.40
2018-10-09T16:18:50.995Z,20.30
2018-10-09T16:21:19.182Z,20.20
2018-10-09T16:23:58.672Z,20.10
2018-10-09T16:26:27.413Z,19.90
2018-10-09T16:28:55.613Z,19.80
2018-10-09T16:31:24.148Z,19.70
2018-10-09T16:33:52.245Z,19.60
2018-10-09T16:36:20.383Z,19.90
2018-10-09T16:38:48.813Z,19.30
2018-10-09T16:41:16.865Z,19.20
2018-10-09T16:43:45.129Z,19.00
2018-10-09T16:46:13.449Z,18.80
2018-10-09T16:48:41.663Z,18.70
2018-10-09T16:51:09.817Z,18.60
2018-10-09T16:53:38.137Z,18.60
2018-10-09T16:56:12.921Z,18.60
2018-10-09T16:58:41.299Z,18.50
2018-10-09T17:01:10.772Z,18.40
2018-10-09T17:03:38.820Z,18.30
2018-10-09T17:06:07.025Z,18.20
2018-10-09T17:08:35.789Z,18.10
2018-10-09T17:11:04.091Z,18.00
2018-10-09T17:13:32.236Z,18.00
2018-10-09T17:16:00.319Z,17.90
2018-10-09T17:18:28.466Z,17.80
2018-10-09T17:20:56.531Z,17.70
2018-10-09T17:23:24.712Z,17.60
2018-10-09T17:25:52.994Z,17.50
2018-10-09T17:28:21.175Z,17.40
2018-10-09T17:30:49.292Z,17.30
2018-10-09T17:33:17.690Z,17.30
2018-10-09T17:35:45.872Z,17.20
2018-10-09T17:38:14.083Z,17.10
2018-10-09T17:40:42.533Z,17.00
2018-10-09T17:43:11.754Z,16.90
2018-10-09T17:45:40.026Z,16.80
2018-10-09T17:48:08.189Z,16.80
2018-10-09T17:50:36.567Z,16.70
2018-10-09T17:53:05.029Z,16.60
2018-10-09T17:55:33.073Z,16.50
2018-10-09T17:58:01.209Z,16.30
2018-10-09T18:00:29.826Z,16.20
2018-10-09T18:02:58.719Z,16.70
2018-10-09T18:05:26.974Z,16.00
2018-10-09T18:07:55.686Z,15.90
2018-10-09T18:10:24.347Z,15.90
2018-10-09T18:12:52.537Z,15.70
2018-10-09T18:15:20.763Z,15.70
2018-10-09T18:17:48.821Z,15.60
2018-10-09T18:20:16.948Z,15.70
2018-10-09T18:22:45.340Z,15.60
2018-10-09T18:25:13.390Z,15.50
2018-10-09T18:27:41.484Z,15.40
2018-10-09T18:30:10.257Z,15.50
2018-10-09T18:32:38.732Z,15.30
2018-10-09T18:35:07.204Z,15.30
2018-10-09T18:37:35.361Z,15.20
2018-10-09T18:40:03.932Z,15.00
2018-10-09T18:42:32.801Z,14.90
2018-10-09T18:45:01.038Z,14.80
2018-10-09T18:47:35.207Z,14.70
2018-10-09T18:50:03.937Z,14.70
2018-10-09T18:52:32.054Z,14.60
2018-10-09T18:55:00.288Z,14.60
2018-10-09T18:57:28.302Z,14.40
2018-10-09T18:59:56.758Z,14.30
2018-10-09T19:02:24.807Z,14.30
2018-10-09T19:04:52.861Z,14.20
2018-10-09T19:07:21.099Z,14.20
2018-10-09T19:09:49.412Z,14.20
2018-10-09T19:12:17.608Z,14.00
2018-10-09T19:14:45.875Z,14.00
2018-10-09T19:17:14.051Z,14.00
2018-10-09T19:19:42.444Z,14.00
2018-10-09T19:22:11.006Z,14.00
2018-10-09T19:24:39.440Z,14.00
2018-10-09T19:27:07.741Z,14.00
2018-10-09T19:29:36.296Z,13.90
2018-10-09T19:32:04.434Z,13.90
2018-10-09T19:34:32.916Z,13.80
2018-10-09T19:37:01.121Z,13.70
2018-10-09T19:39:29.133Z,13.60
2018-10-09T19:41:58.088Z,13.60
2018-10-09T19:44:26.277Z,13.50
2018-10-09T19:46:54.433Z,13.40
2018-10-09T19:49:22.637Z,13.20
2018-10-09T19:51:51.076Z,13.10
2018-10-09T19:54:19.359Z,12.90
2018-10-09T19:56:47.502Z,12.80
2018-10-09T19:59:46.909Z,12.70
2018-10-09T20:02:15.202Z,12.60
2018-10-09T20:04:43.371Z,12.60
2018-10-09T20:07:11.769Z,12.50
2018-10-09T20:09:40.311Z,12.40
2018-10-09T20:12:08.836Z,12.40
2018-10-09T20:14:36.940Z,12.60
2018-10-09T20:17:05.107Z,12.50
2018-10-09T20:19:33.374Z,12.30
2018-10-09T20:22:01.612Z,12.10
2018-10-09T20:24:30.031Z,12.00
2018-10-09T20:26:58.701Z,12.00
2018-10-09T20:29:26.856Z,11.90
2018-10-09T20:31:54.962Z,11.80
2018-10-09T20:34:23.147Z,11.80
2018-10-09T20:36:51.371Z,11.70
2018-10-09T20:39:19.423Z,11.60
2018-10-09T20:41:47.646Z,11.50
2018-10-09T20:44:15.739Z,11.40
2018-10-09T20:46:43.901Z,11.40
2018-10-09T20:49:11.971Z,11.40
2018-10-09T20:52:43.768Z,11.40
2018-10-09T20:55:11.887Z,11.40
2018-10-09T20:57:40.309Z,11.30
2018-10-09T21:00:08.679Z,11.30
2018-10-09T21:02:38.402Z,11.30
2018-10-09T21:05:06.673Z,11.20
2018-10-09T21:07:35.012Z,11.10
2018-10-09T21:10:03.496Z,11.10
2018-10-09T21:12:32.047Z,11.10
2018-10-09T21:15:00.585Z,11.00
2018-10-09T21:17:28.910Z,10.90
2018-10-09T21:23:07.625Z,10.70
2018-10-09T21:25:36.082Z,10.70
2018-10-09T21:28:04.261Z,10.60
2018-10-09T21:30:32.407Z,10.50
2018-10-09T21:33:01.007Z,10.40
2018-10-09T21:35:29.093Z,10.40
2018-10-09T21:37:57.934Z,10.40
2018-10-09T21:40:26.100Z,10.30
2018-10-09T21:42:54.738Z,10.30
2018-10-09T21:45:23.111Z,10.20
2018-10-09T21:47:56.926Z,10.20
2018-10-09T21:50:25.225Z,10.20
2018-10-09T21:52:53.405Z,10.20
2018-10-09T21:55:21.598Z,10.20
2018-10-09T21:57:49.611Z,10.10
2018-10-09T22:00:17.810Z,10.10
2018-10-09T22:02:45.863Z,10.10
2018-10-09T22:05:14.022Z,10.10
2018-10-09T22:07:42.377Z,10.00
2018-10-09T22:10:11.225Z,10.00
2018-10-09T22:12:39.386Z,10.00
2018-10-09T22:15:07.687Z,9.90
2018-10-09T22:17:36.038Z,10.00
2018-10-09T22:20:04.270Z,9.90
2018-10-09T22:22:32.389Z,9.90
2018-10-09T22:25:00.385Z,9.80
2018-10-09T22:27:28.892Z,9.90
2018-10-09T22:29:57.028Z,10.00
2018-10-09T22:32:25.079Z,10.00
2018-10-09T22:34:53.177Z,10.00
2018-10-09T22:37:21.553Z,9.90
2018-10-09T22:39:49.605Z,9.80
2018-10-09T22:42:17.835Z,9.70
2018-10-09T22:44:45.930Z,9.70
2018-10-09T22:47:14.344Z,9.70
2018-10-09T22:49:42.456Z,9.60
2018-10-09T22:52:10.879Z,9.60
2018-10-09T22:54:39.012Z,9.60
2018-10-09T22:57:07.445Z,9.60
2018-10-09T22:59:35.607Z,9.50
2018-10-09T23:02:04.016Z,9.50
2018-10-09T23:04:32.015Z,9.40
2018-10-09T23:07:00.437Z,9.40
2018-10-09T23:09:29.008Z,9.40
2018-10-09T23:11:57.184Z,9.30
2018-10-09T23:14:25.335Z,9.30
2018-10-09T23:16:53.729Z,9.20
2018-10-09T23:19:21.899Z,9.30
2018-10-09T23:21:50.279Z,9.30
2018-10-09T23:24:18.567Z,9.20
2018-10-09T23:26:47.085Z,9.20
2018-10-09T23:29:15.404Z,9.10
2018-10-09T23:31:43.716Z,9.10
2018-10-09T23:34:11.991Z,9.00
2018-10-09T23:36:40.238Z,9.00
2018-10-09T23:39:08.950Z,9.00
2018-10-09T23:41:37.338Z,9.00
2018-10-09T23:44:05.392Z,9.00
2018-10-09T23:46:33.548Z,10.20
2018-10-09T23:49:02.036Z,9.00
2018-10-09T23:51:30.269Z,8.90
2018-10-09T23:53:58.306Z,8.80
2018-10-09T23:56:26.446Z,8.70
2018-10-09T23:58:54.681Z,8.70
